sensor_id;sensor_type;location;lat;lon;timestamp;temperature;humidity
68026;SHT31;54819;48.030;14.710;2023-02-11T00:01:41;-1.68;76.22
68026;SHT31;54819;48.030;14.710;2023-02-11T00:04:08;-1.73;76.10
68026;SHT31;54819;48.030;14.710;2023-02-11T00:06:36;-1.76;76.03
68026;SHT31;54819;48.030;14.710;2023-02-11T00:09:03;-1.82;76.08
68026;SHT31;54819;48.030;14.710;2023-02-11T00:11:32;-1.87;76.06
68026;SHT31;54819;48.030;14.710;2023-02-11T00:14:01;-1.92;76.24
68026;SHT31;54819;48.030;14.710;2023-02-11T00:16:31;-1.98;76.20
68026;SHT31;54819;48.030;14.710;2023-02-11T00:19:02;-2.03;76.15
68026;SHT31;54819;48.030;14.710;2023-02-11T00:21:34;-2.10;76.50
68026;SHT31;54819;48.030;14.710;2023-02-11T00:24:05;-2.17;76.49
68026;SHT31;54819;48.030;14.710;2023-02-11T00:26:37;-2.24;77.30
68026;SHT31;54819;48.030;14.710;2023-02-11T00:29:11;-2.31;77.03
68026;SHT31;54819;48.030;14.710;2023-02-11T00:31:39;-2.37;77.81
68026;SHT31;54819;48.030;14.710;2023-02-11T00:34:10;-2.42;78.30
68026;SHT31;54819;48.030;14.710;2023-02-11T00:36:40;-2.45;77.87
68026;SHT31;54819;48.030;14.710;2023-02-11T00:39:20;-2.47;77.66
68026;SHT31;54819;48.030;14.710;2023-02-11T00:41:48;-2.49;78.79
68026;SHT31;54819;48.030;14.710;2023-02-11T00:44:20;-2.49;78.82
68026;SHT31;54819;48.030;14.710;2023-02-11T00:46:51;-2.49;78.61
68026;SHT31;54819;48.030;14.710;2023-02-11T00:49:18;-2.46;78.28
68026;SHT31;54819;48.030;14.710;2023-02-11T00:51:54;-2.45;78.21
68026;SHT31;54819;48.030;14.710;2023-02-11T00:54:30;-2.41;78.23
68026;SHT31;54819;48.030;14.710;2023-02-11T00:56:57;-2.39;78.55
68026;SHT31;54819;48.030;14.710;2023-02-11T00:59:30;-2.40;78.64
68026;SHT31;54819;48.030;14.710;2023-02-11T01:02:08;-2.41;78.63
68026;SHT31;54819;48.030;14.710;2023-02-11T01:04:46;-2.43;79.89
68026;SHT31;54819;48.030;14.710;2023-02-11T01:07:20;-2.44;80.04
68026;SHT31;54819;48.030;14.710;2023-02-11T01:09:59;-2.46;79.53
68026;SHT31;54819;48.030;14.710;2023-02-11T01:12:30;-2.49;79.04
68026;SHT31;54819;48.030;14.710;2023-02-11T01:15:25;-2.51;78.48
68026;SHT31;54819;48.030;14.710;2023-02-11T01:17:58;-2.56;78.29
68026;SHT31;54819;48.030;14.710;2023-02-11T01:20:32;-2.61;78.31
68026;SHT31;54819;48.030;14.710;2023-02-11T01:23:00;-2.66;78.32
68026;SHT31;54819;48.030;14.710;2023-02-11T01:25:28;-2.70;78.40
68026;SHT31;54819;48.030;14.710;2023-02-11T01:28:00;-2.75;78.21
68026;SHT31;54819;48.030;14.710;2023-02-11T01:30:30;-2.81;78.03
68026;SHT31;54819;48.030;14.710;2023-02-11T01:33:02;-2.86;78.12
68026;SHT31;54819;48.030;14.710;2023-02-11T01:35:32;-2.88;77.85
68026;SHT31;54819;48.030;14.710;2023-02-11T01:38:02;-2.86;78.15
68026;SHT31;54819;48.030;14.710;2023-02-11T01:40:37;-2.87;78.35
68026;SHT31;54819;48.030;14.710;2023-02-11T01:43:10;-2.85;78.60
68026;SHT31;54819;48.030;14.710;2023-02-11T01:48:14;-2.82;78.93
68026;SHT31;54819;48.030;14.710;2023-02-11T01:51:00;-2.80;79.20
68026;SHT31;54819;48.030;14.710;2023-02-11T01:53:34;-2.77;79.13
68026;SHT31;54819;48.030;14.710;2023-02-11T01:56:29;-2.74;79.02
68026;SHT31;54819;48.030;14.710;2023-02-11T01:59:32;-2.70;79.04
68026;SHT31;54819;48.030;14.710;2023-02-11T02:02:31;-2.70;78.85
68026;SHT31;54819;48.030;14.710;2023-02-11T02:10:49;-2.78;80.20
68026;SHT31;54819;48.030;14.710;2023-02-11T02:13:22;-2.81;79.44
68026;SHT31;54819;48.030;14.710;2023-02-11T02:15:58;-2.85;79.34
68026;SHT31;54819;48.030;14.710;2023-02-11T02:27:40;-3.03;78.74
68026;SHT31;54819;48.030;14.710;2023-02-11T02:39:54;-3.29;79.87
68026;SHT31;54819;48.030;14.710;2023-02-11T02:42:27;-3.32;79.69
68026;SHT31;54819;48.030;14.710;2023-02-11T02:44:56;-3.35;80.12
68026;SHT31;54819;48.030;14.710;2023-02-11T02:47:27;-3.37;79.97
68026;SHT31;54819;48.030;14.710;2023-02-11T02:49:58;-3.38;79.87
68026;SHT31;54819;48.030;14.710;2023-02-11T02:59:04;-3.33;79.94
68026;SHT31;54819;48.030;14.710;2023-02-11T03:05:37;-3.26;80.81
68026;SHT31;54819;48.030;14.710;2023-02-11T03:08:17;-3.22;81.50
68026;SHT31;54819;48.030;14.710;2023-02-11T03:11:08;-3.18;80.98
68026;SHT31;54819;48.030;14.710;2023-02-11T03:13:41;-3.14;80.75
68026;SHT31;54819;48.030;14.710;2023-02-11T03:16:14;-3.11;80.42
68026;SHT31;54819;48.030;14.710;2023-02-11T03:18:49;-3.05;80.10
68026;SHT31;54819;48.030;14.710;2023-02-11T03:21:22;-3.03;80.18
68026;SHT31;54819;48.030;14.710;2023-02-11T03:23:55;-3.03;80.80
68026;SHT31;54819;48.030;14.710;2023-02-11T03:26:43;-3.07;80.92
68026;SHT31;54819;48.030;14.710;2023-02-11T03:29:30;-3.08;80.57
68026;SHT31;54819;48.030;14.710;2023-02-11T03:32:14;-3.10;80.47
68026;SHT31;54819;48.030;14.710;2023-02-11T03:35:24;-3.14;80.27
68026;SHT31;54819;48.030;14.710;2023-02-11T03:38:10;-3.17;80.46
68026;SHT31;54819;48.030;14.710;2023-02-11T03:40:49;-3.17;80.42
68026;SHT31;54819;48.030;14.710;2023-02-11T03:43:21;-3.19;80.47
68026;SHT31;54819;48.030;14.710;2023-02-11T03:46:15;-3.20;80.22
68026;SHT31;54819;48.030;14.710;2023-02-11T03:48:54;-3.23;80.42
68026;SHT31;54819;48.030;14.710;2023-02-11T03:51:29;-3.26;80.41
68026;SHT31;54819;48.030;14.710;2023-02-11T03:54:06;-3.30;80.05
68026;SHT31;54819;48.030;14.710;2023-02-11T03:56:53;-3.34;79.91
68026;SHT31;54819;48.030;14.710;2023-02-11T03:59:28;-3.35;79.97
68026;SHT31;54819;48.030;14.710;2023-02-11T04:01:56;-3.33;79.81
68026;SHT31;54819;48.030;14.710;2023-02-11T04:04:27;-3.30;80.26
68026;SHT31;54819;48.030;14.710;2023-02-11T04:06:59;-3.30;80.27
68026;SHT31;54819;48.030;14.710;2023-02-11T04:09:32;-3.28;80.11
68026;SHT31;54819;48.030;14.710;2023-02-11T04:12:02;-3.22;80.15
68026;SHT31;54819;48.030;14.710;2023-02-11T04:14:32;-3.16;81.03
68026;SHT31;54819;48.030;14.710;2023-02-11T04:17:06;-3.12;80.66
68026;SHT31;54819;48.030;14.710;2023-02-11T04:19:34;-3.09;80.27
68026;SHT31;54819;48.030;14.710;2023-02-11T04:22:05;-3.08;79.92
68026;SHT31;54819;48.030;14.710;2023-02-11T04:24:39;-3.09;80.26
68026;SHT31;54819;48.030;14.710;2023-02-11T04:27:06;-3.09;80.12
68026;SHT31;54819;48.030;14.710;2023-02-11T04:29:41;-3.10;80.11
68026;SHT31;54819;48.030;14.710;2023-02-11T04:32:14;-3.06;80.07
68026;SHT31;54819;48.030;14.710;2023-02-11T04:34:45;-3.02;79.72
68026;SHT31;54819;48.030;14.710;2023-02-11T04:37:21;-3.01;79.63
68026;SHT31;54819;48.030;14.710;2023-02-11T04:39:57;-3.03;79.59
68026;SHT31;54819;48.030;14.710;2023-02-11T04:42:24;-3.06;79.36
68026;SHT31;54819;48.030;14.710;2023-02-11T04:45:03;-3.08;79.57
68026;SHT31;54819;48.030;14.710;2023-02-11T04:47:34;-3.11;79.77
68026;SHT31;54819;48.030;14.710;2023-02-11T04:50:04;-3.12;79.64
68026;SHT31;54819;48.030;14.710;2023-02-11T04:52:32;-3.11;79.10
68026;SHT31;54819;48.030;14.710;2023-02-11T04:54:59;-3.10;78.88
68026;SHT31;54819;48.030;14.710;2023-02-11T04:57:27;-3.07;78.54
68026;SHT31;54819;48.030;14.710;2023-02-11T04:59:54;-3.09;79.43
68026;SHT31;54819;48.030;14.710;2023-02-11T05:02:24;-3.11;78.70
68026;SHT31;54819;48.030;14.710;2023-02-11T05:04:54;-3.09;78.64
68026;SHT31;54819;48.030;14.710;2023-02-11T05:07:25;-3.07;79.08
68026;SHT31;54819;48.030;14.710;2023-02-11T05:09:57;-3.07;79.28
68026;SHT31;54819;48.030;14.710;2023-02-11T05:12:28;-3.07;79.17
68026;SHT31;54819;48.030;14.710;2023-02-11T05:15:04;-3.06;79.92
68026;SHT31;54819;48.030;14.710;2023-02-11T05:17:36;-3.03;79.76
68026;SHT31;54819;48.030;14.710;2023-02-11T05:20:06;-3.00;79.98
68026;SHT31;54819;48.030;14.710;2023-02-11T05:22:34;-2.97;79.93
68026;SHT31;54819;48.030;14.710;2023-02-11T05:25:02;-2.93;80.09
68026;SHT31;54819;48.030;14.710;2023-02-11T05:27:33;-2.87;79.65
68026;SHT31;54819;48.030;14.710;2023-02-11T05:30:04;-2.82;79.39
68026;SHT31;54819;48.030;14.710;2023-02-11T05:32:32;-2.80;79.33
68026;SHT31;54819;48.030;14.710;2023-02-11T05:35:03;-2.77;79.11
68026;SHT31;54819;48.030;14.710;2023-02-11T05:37:34;-2.79;79.46
68026;SHT31;54819;48.030;14.710;2023-02-11T05:40:07;-2.82;79.24
68026;SHT31;54819;48.030;14.710;2023-02-11T05:42:36;-2.86;79.09
68026;SHT31;54819;48.030;14.710;2023-02-11T05:45:06;-2.91;79.44
68026;SHT31;54819;48.030;14.710;2023-02-11T05:47:37;-2.94;79.20
68026;SHT31;54819;48.030;14.710;2023-02-11T05:50:04;-2.97;79.00
68026;SHT31;54819;48.030;14.710;2023-02-11T05:52:32;-2.99;79.42
68026;SHT31;54819;48.030;14.710;2023-02-11T05:55:02;-3.03;79.45
68026;SHT31;54819;48.030;14.710;2023-02-11T05:57:50;-3.05;79.31
68026;SHT31;54819;48.030;14.710;2023-02-11T06:00:20;-3.06;79.49
68026;SHT31;54819;48.030;14.710;2023-02-11T06:02:50;-3.07;79.54
68026;SHT31;54819;48.030;14.710;2023-02-11T06:05:21;-3.07;79.47
68026;SHT31;54819;48.030;14.710;2023-02-11T06:07:48;-3.07;79.51
68026;SHT31;54819;48.030;14.710;2023-02-11T06:10:19;-3.04;79.72
68026;SHT31;54819;48.030;14.710;2023-02-11T06:12:46;-3.01;79.58
68026;SHT31;54819;48.030;14.710;2023-02-11T06:15:19;-2.97;79.54
68026;SHT31;54819;48.030;14.710;2023-02-11T06:17:47;-2.95;79.83
68026;SHT31;54819;48.030;14.710;2023-02-11T06:20:14;-2.91;79.52
68026;SHT31;54819;48.030;14.710;2023-02-11T06:22:45;-2.86;79.66
68026;SHT31;54819;48.030;14.710;2023-02-11T06:25:13;-2.81;79.64
68026;SHT31;54819;48.030;14.710;2023-02-11T06:27:40;-2.77;79.58
68026;SHT31;54819;48.030;14.710;2023-02-11T06:30:08;-2.73;79.36
68026;SHT31;54819;48.030;14.710;2023-02-11T06:32:36;-2.70;79.22
68026;SHT31;54819;48.030;14.710;2023-02-11T06:35:11;-2.67;79.31
68026;SHT31;54819;48.030;14.710;2023-02-11T06:37:40;-2.63;79.19
68026;SHT31;54819;48.030;14.710;2023-02-11T06:40:15;-2.61;79.09
68026;SHT31;54819;48.030;14.710;2023-02-11T06:42:43;-2.59;79.04
68026;SHT31;54819;48.030;14.710;2023-02-11T06:45:10;-2.55;79.09
68026;SHT31;54819;48.030;14.710;2023-02-11T06:47:39;-2.51;79.12
68026;SHT31;54819;48.030;14.710;2023-02-11T06:50:16;-2.46;79.10
68026;SHT31;54819;48.030;14.710;2023-02-11T06:52:46;-2.41;78.75
68026;SHT31;54819;48.030;14.710;2023-02-11T06:55:13;-2.33;78.65
68026;SHT31;54819;48.030;14.710;2023-02-11T06:57:41;-2.25;78.68
68026;SHT31;54819;48.030;14.710;2023-02-11T07:00:11;-2.17;78.50
68026;SHT31;54819;48.030;14.710;2023-02-11T07:02:39;-2.09;78.19
68026;SHT31;54819;48.030;14.710;2023-02-11T07:05:10;-2.00;78.12
68026;SHT31;54819;48.030;14.710;2023-02-11T07:07:37;-1.90;78.15
68026;SHT31;54819;48.030;14.710;2023-02-11T07:10:07;-1.76;77.92
68026;SHT31;54819;48.030;14.710;2023-02-11T07:12:35;-1.61;77.62
68026;SHT31;54819;48.030;14.710;2023-02-11T07:15:05;-1.42;77.74
68026;SHT31;54819;48.030;14.710;2023-02-11T07:17:39;-1.30;77.79
68026;SHT31;54819;48.030;14.710;2023-02-11T07:20:07;-1.22;77.67
68026;SHT31;54819;48.030;14.710;2023-02-11T07:22:40;-1.10;77.55
68026;SHT31;54819;48.030;14.710;2023-02-11T07:25:08;-0.97;77.33
68026;SHT31;54819;48.030;14.710;2023-02-11T07:27:38;-0.85;76.88
68026;SHT31;54819;48.030;14.710;2023-02-11T07:30:06;-0.73;76.61
68026;SHT31;54819;48.030;14.710;2023-02-11T07:32:35;-0.66;76.33
68026;SHT31;54819;48.030;14.710;2023-02-11T07:35:05;-0.58;76.28
68026;SHT31;54819;48.030;14.710;2023-02-11T07:37:33;-0.48;76.41
68026;SHT31;54819;48.030;14.710;2023-02-11T07:40:02;-0.38;76.44
68026;SHT31;54819;48.030;14.710;2023-02-11T07:42:30;-0.31;76.44
68026;SHT31;54819;48.030;14.710;2023-02-11T07:44:57;-0.25;76.31
68026;SHT31;54819;48.030;14.710;2023-02-11T07:47:28;-0.17;76.22
68026;SHT31;54819;48.030;14.710;2023-02-11T07:49:59;-0.11;76.17
68026;SHT31;54819;48.030;14.710;2023-02-11T07:52:30;-0.05;76.02
68026;SHT31;54819;48.030;14.710;2023-02-11T07:54:57;0.01;76.00
68026;SHT31;54819;48.030;14.710;2023-02-11T07:57:28;0.09;75.94
68026;SHT31;54819;48.030;14.710;2023-02-11T07:59:58;0.17;75.65
68026;SHT31;54819;48.030;14.710;2023-02-11T08:02:36;0.26;75.18
68026;SHT31;54819;48.030;14.710;2023-02-11T08:05:08;0.30;74.94
68026;SHT31;54819;48.030;14.710;2023-02-11T08:07:39;0.30;74.63
68026;SHT31;54819;48.030;14.710;2023-02-11T08:10:06;0.31;74.31
68026;SHT31;54819;48.030;14.710;2023-02-11T08:12:34;0.32;74.65
68026;SHT31;54819;48.030;14.710;2023-02-11T08:15:04;0.36;75.12
68026;SHT31;54819;48.030;14.710;2023-02-11T08:17:33;0.43;75.24
68026;SHT31;54819;48.030;14.710;2023-02-11T08:20:05;0.53;75.21
68026;SHT31;54819;48.030;14.710;2023-02-11T08:22:51;0.63;74.95
68026;SHT31;54819;48.030;14.710;2023-02-11T08:25:31;0.70;73.65
68026;SHT31;54819;48.030;14.710;2023-02-11T08:28:20;0.79;73.70
68026;SHT31;54819;48.030;14.710;2023-02-11T08:30:53;0.86;73.67
68026;SHT31;54819;48.030;14.710;2023-02-11T08:33:32;0.88;72.33
68026;SHT31;54819;48.030;14.710;2023-02-11T08:36:15;0.92;72.93
68026;SHT31;54819;48.030;14.710;2023-02-11T08:39:25;0.94;73.65
68026;SHT31;54819;48.030;14.710;2023-02-11T08:42:07;0.99;73.06
68026;SHT31;54819;48.030;14.710;2023-02-11T08:44:47;1.09;72.23
68026;SHT31;54819;48.030;14.710;2023-02-11T08:47:18;1.21;71.92
68026;SHT31;54819;48.030;14.710;2023-02-11T08:49:45;1.38;71.80
68026;SHT31;54819;48.030;14.710;2023-02-11T08:52:32;1.62;71.31
68026;SHT31;54819;48.030;14.710;2023-02-11T08:55:13;1.83;69.43
68026;SHT31;54819;48.030;14.710;2023-02-11T08:57:45;1.92;69.08
68026;SHT31;54819;48.030;14.710;2023-02-11T09:00:17;2.03;69.73
68026;SHT31;54819;48.030;14.710;2023-02-11T09:03:01;2.14;69.98
68026;SHT31;54819;48.030;14.710;2023-02-11T09:08:57;2.27;69.30
68026;SHT31;54819;48.030;14.710;2023-02-11T09:11:42;2.26;69.04
68026;SHT31;54819;48.030;14.710;2023-02-11T09:14:26;2.30;70.14
68026;SHT31;54819;48.030;14.710;2023-02-11T09:17:07;2.33;70.14
68026;SHT31;54819;48.030;14.710;2023-02-11T09:19:46;2.37;69.87
68026;SHT31;54819;48.030;14.710;2023-02-11T09:22:22;2.41;68.65
68026;SHT31;54819;48.030;14.710;2023-02-11T09:25:11;2.47;68.11
68026;SHT31;54819;48.030;14.710;2023-02-11T09:27:42;2.56;68.07
68026;SHT31;54819;48.030;14.710;2023-02-11T09:30:13;2.68;68.46
68026;SHT31;54819;48.030;14.710;2023-02-11T09:32:48;2.80;68.16
68026;SHT31;54819;48.030;14.710;2023-02-11T09:35:21;2.94;67.74
68026;SHT31;54819;48.030;14.710;2023-02-11T09:37:49;3.13;68.15
68026;SHT31;54819;48.030;14.710;2023-02-11T09:40:16;3.25;65.96
68026;SHT31;54819;48.030;14.710;2023-02-11T09:42:47;3.36;66.29
68026;SHT31;54819;48.030;14.710;2023-02-11T09:45:32;3.47;66.40
68026;SHT31;54819;48.030;14.710;2023-02-11T09:50:55;3.69;67.26
68026;SHT31;54819;48.030;14.710;2023-02-11T09:53:29;3.77;66.62
68026;SHT31;54819;48.030;14.710;2023-02-11T09:56:10;3.88;67.55
68026;SHT31;54819;48.030;14.710;2023-02-11T09:58:41;4.03;67.67
68026;SHT31;54819;48.030;14.710;2023-02-11T10:06:46;4.30;66.03
68026;SHT31;54819;48.030;14.710;2023-02-11T10:09:27;4.36;65.51
68026;SHT31;54819;48.030;14.710;2023-02-11T10:15:50;4.40;64.59
68026;SHT31;54819;48.030;14.710;2023-02-11T10:21:31;4.59;64.40
68026;SHT31;54819;48.030;14.710;2023-02-11T10:24:13;4.61;64.14
68026;SHT31;54819;48.030;14.710;2023-02-11T10:26:43;4.65;64.21
68026;SHT31;54819;48.030;14.710;2023-02-11T10:32:14;4.59;64.20
68026;SHT31;54819;48.030;14.710;2023-02-11T10:35:03;4.61;64.38
68026;SHT31;54819;48.030;14.710;2023-02-11T10:37:47;4.57;64.03
68026;SHT31;54819;48.030;14.710;2023-02-11T10:40:19;4.51;64.51
68026;SHT31;54819;48.030;14.710;2023-02-11T10:42:56;4.39;64.11
68026;SHT31;54819;48.030;14.710;2023-02-11T10:45:37;4.37;64.35
68026;SHT31;54819;48.030;14.710;2023-02-11T10:51:27;4.24;64.28
68026;SHT31;54819;48.030;14.710;2023-02-11T10:56:30;4.26;63.32
68026;SHT31;54819;48.030;14.710;2023-02-11T10:59:11;4.30;63.66
68026;SHT31;54819;48.030;14.710;2023-02-11T11:02:22;4.50;64.53
68026;SHT31;54819;48.030;14.710;2023-02-11T11:05:04;4.55;61.87
68026;SHT31;54819;48.030;14.710;2023-02-11T11:07:53;4.64;62.19
68026;SHT31;54819;48.030;14.710;2023-02-11T11:10:47;4.82;63.08
68026;SHT31;54819;48.030;14.710;2023-02-11T11:13:38;5.00;63.30
68026;SHT31;54819;48.030;14.710;2023-02-11T11:16:29;5.12;62.99
68026;SHT31;54819;48.030;14.710;2023-02-11T11:21:45;5.31;61.09
68026;SHT31;54819;48.030;14.710;2023-02-11T11:27:14;5.36;60.35
68026;SHT31;54819;48.030;14.710;2023-02-11T11:29:55;5.49;61.34
68026;SHT31;54819;48.030;14.710;2023-02-11T11:32:27;5.40;59.99
68026;SHT31;54819;48.030;14.710;2023-02-11T11:34:59;5.21;59.69
68026;SHT31;54819;48.030;14.710;2023-02-11T11:37:34;5.05;59.80
68026;SHT31;54819;48.030;14.710;2023-02-11T11:42:41;4.81;60.10
68026;SHT31;54819;48.030;14.710;2023-02-11T11:51:11;5.01;60.84
68026;SHT31;54819;48.030;14.710;2023-02-11T11:53:57;5.09;60.08
68026;SHT31;54819;48.030;14.710;2023-02-11T11:56:33;5.07;59.87
68026;SHT31;54819;48.030;14.710;2023-02-11T11:59:16;5.13;59.89
68026;SHT31;54819;48.030;14.710;2023-02-11T12:05:02;5.25;59.29
68026;SHT31;54819;48.030;14.710;2023-02-11T12:13:12;5.70;58.91
68026;SHT31;54819;48.030;14.710;2023-02-11T12:26:35;6.21;58.82
68026;SHT31;54819;48.030;14.710;2023-02-11T12:39:18;6.45;56.25
68026;SHT31;54819;48.030;14.710;2023-02-11T12:42:32;6.49;56.24
68026;SHT31;54819;48.030;14.710;2023-02-11T12:45:40;6.39;55.81
68026;SHT31;54819;48.030;14.710;2023-02-11T12:54:45;6.30;55.29
68026;SHT31;54819;48.030;14.710;2023-02-11T12:57:29;6.18;54.65
68026;SHT31;54819;48.030;14.710;2023-02-11T13:00:11;6.16;54.13
68026;SHT31;54819;48.030;14.710;2023-02-11T13:05:50;5.94;53.54
68026;SHT31;54819;48.030;14.710;2023-02-11T13:09:21;6.02;54.50
68026;SHT31;54819;48.030;14.710;2023-02-11T13:12:11;5.94;53.73
68026;SHT31;54819;48.030;14.710;2023-02-11T13:15:13;5.90;53.70
68026;SHT31;54819;48.030;14.710;2023-02-11T13:18:03;5.86;53.97
68026;SHT31;54819;48.030;14.710;2023-02-11T13:35:32;5.59;54.20
68026;SHT31;54819;48.030;14.710;2023-02-11T13:38:22;5.54;54.94
68026;SHT31;54819;48.030;14.710;2023-02-11T13:44:12;5.57;55.48
68026;SHT31;54819;48.030;14.710;2023-02-11T13:47:00;5.53;55.88
68026;SHT31;54819;48.030;14.710;2023-02-11T13:50:01;5.49;56.01
68026;SHT31;54819;48.030;14.710;2023-02-11T13:52:47;5.45;56.19
68026;SHT31;54819;48.030;14.710;2023-02-11T13:55:24;5.48;56.85
68026;SHT31;54819;48.030;14.710;2023-02-11T14:03:21;5.57;57.27
68026;SHT31;54819;48.030;14.710;2023-02-11T14:06:22;5.55;57.01
68026;SHT31;54819;48.030;14.710;2023-02-11T14:12:15;5.52;57.34
68026;SHT31;54819;48.030;14.710;2023-02-11T14:15:25;5.51;57.67
68026;SHT31;54819;48.030;14.710;2023-02-11T14:17:53;5.52;58.04
68026;SHT31;54819;48.030;14.710;2023-02-11T14:32:53;5.39;58.35
68026;SHT31;54819;48.030;14.710;2023-02-11T14:36:01;5.36;58.33
68026;SHT31;54819;48.030;14.710;2023-02-11T14:38:59;5.31;58.21
68026;SHT31;54819;48.030;14.710;2023-02-11T14:41:38;5.28;58.21
68026;SHT31;54819;48.030;14.710;2023-02-11T14:44:22;5.26;58.07
68026;SHT31;54819;48.030;14.710;2023-02-11T14:46:56;5.24;58.12
68026;SHT31;54819;48.030;14.710;2023-02-11T14:49:34;5.24;58.29
68026;SHT31;54819;48.030;14.710;2023-02-11T14:54:49;5.24;58.23
68026;SHT31;54819;48.030;14.710;2023-02-11T14:57:25;5.25;58.44
68026;SHT31;54819;48.030;14.710;2023-02-11T14:59:57;5.26;58.45
68026;SHT31;54819;48.030;14.710;2023-02-11T15:02:41;5.25;58.27
68026;SHT31;54819;48.030;14.710;2023-02-11T15:05:25;5.25;58.28
68026;SHT31;54819;48.030;14.710;2023-02-11T15:08:00;5.25;57.87
68026;SHT31;54819;48.030;14.710;2023-02-11T15:10:41;5.25;58.08
68026;SHT31;54819;48.030;14.710;2023-02-11T15:13:19;5.25;57.93
68026;SHT31;54819;48.030;14.710;2023-02-11T15:16:21;5.26;58.36
68026;SHT31;54819;48.030;14.710;2023-02-11T15:19:01;5.27;58.41
68026;SHT31;54819;48.030;14.710;2023-02-11T15:21:46;5.28;58.48
68026;SHT31;54819;48.030;14.710;2023-02-11T15:24:20;5.27;58.31
68026;SHT31;54819;48.030;14.710;2023-02-11T15:29:50;5.30;58.68
68026;SHT31;54819;48.030;14.710;2023-02-11T15:32:21;5.31;58.70
68026;SHT31;54819;48.030;14.710;2023-02-11T15:34:57;5.33;58.72
68026;SHT31;54819;48.030;14.710;2023-02-11T15:37:30;5.34;58.75
68026;SHT31;54819;48.030;14.710;2023-02-11T15:43:04;5.35;58.84
68026;SHT31;54819;48.030;14.710;2023-02-11T15:45:43;5.32;58.03
68026;SHT31;54819;48.030;14.710;2023-02-11T15:54:01;5.23;58.09
68026;SHT31;54819;48.030;14.710;2023-02-11T15:57:01;5.20;57.83
68026;SHT31;54819;48.030;14.710;2023-02-11T15:59:42;5.16;56.90
68026;SHT31;54819;48.030;14.710;2023-02-11T16:02:37;5.17;57.51
68026;SHT31;54819;48.030;14.710;2023-02-11T16:05:24;5.14;57.41
68026;SHT31;54819;48.030;14.710;2023-02-11T16:08:19;5.10;56.02
68026;SHT31;54819;48.030;14.710;2023-02-11T16:10:59;5.09;56.49
68026;SHT31;54819;48.030;14.710;2023-02-11T16:13:44;5.09;57.02
68026;SHT31;54819;48.030;14.710;2023-02-11T16:16:22;5.08;57.38
68026;SHT31;54819;48.030;14.710;2023-02-11T16:18:59;5.01;56.60
68026;SHT31;54819;48.030;14.710;2023-02-11T16:21:40;4.98;56.67
68026;SHT31;54819;48.030;14.710;2023-02-11T16:24:24;4.96;56.59
68026;SHT31;54819;48.030;14.710;2023-02-11T16:26:56;4.94;56.60
68026;SHT31;54819;48.030;14.710;2023-02-11T16:29:35;4.94;57.14
68026;SHT31;54819;48.030;14.710;2023-02-11T16:32:19;4.93;57.03
68026;SHT31;54819;48.030;14.710;2023-02-11T16:34:52;4.85;56.89
68026;SHT31;54819;48.030;14.710;2023-02-11T16:37:26;4.82;57.44
68026;SHT31;54819;48.030;14.710;2023-02-11T16:40:02;4.81;57.73
68026;SHT31;54819;48.030;14.710;2023-02-11T16:42:35;4.77;57.77
68026;SHT31;54819;48.030;14.710;2023-02-11T16:45:05;4.77;58.16
68026;SHT31;54819;48.030;14.710;2023-02-11T16:47:37;4.75;58.15
68026;SHT31;54819;48.030;14.710;2023-02-11T16:50:20;4.73;58.48
68026;SHT31;54819;48.030;14.710;2023-02-11T16:52:51;4.70;58.60
68026;SHT31;54819;48.030;14.710;2023-02-11T16:55:24;4.65;58.77
68026;SHT31;54819;48.030;14.710;2023-02-11T16:57:57;4.61;58.92
68026;SHT31;54819;48.030;14.710;2023-02-11T17:00:30;4.55;59.24
68026;SHT31;54819;48.030;14.710;2023-02-11T17:03:07;4.48;59.49
68026;SHT31;54819;48.030;14.710;2023-02-11T17:05:48;4.40;59.53
68026;SHT31;54819;48.030;14.710;2023-02-11T17:08:24;4.36;59.61
68026;SHT31;54819;48.030;14.710;2023-02-11T17:10:52;4.35;59.78
68026;SHT31;54819;48.030;14.710;2023-02-11T17:13:28;4.35;59.95
68026;SHT31;54819;48.030;14.710;2023-02-11T17:16:10;4.34;60.07
68026;SHT31;54819;48.030;14.710;2023-02-11T17:18:56;4.32;60.26
68026;SHT31;54819;48.030;14.710;2023-02-11T17:21:28;4.30;60.38
68026;SHT31;54819;48.030;14.710;2023-02-11T17:24:02;4.28;60.57
68026;SHT31;54819;48.030;14.710;2023-02-11T17:26:34;4.26;60.68
68026;SHT31;54819;48.030;14.710;2023-02-11T17:29:15;4.20;60.83
68026;SHT31;54819;48.030;14.710;2023-02-11T17:31:50;4.15;60.98
68026;SHT31;54819;48.030;14.710;2023-02-11T17:34:19;4.11;60.99
68026;SHT31;54819;48.030;14.710;2023-02-11T17:36:53;4.09;61.03
68026;SHT31;54819;48.030;14.710;2023-02-11T17:39:28;4.06;60.48
68026;SHT31;54819;48.030;14.710;2023-02-11T17:42:08;4.07;60.66
68026;SHT31;54819;48.030;14.710;2023-02-11T17:44:41;4.09;60.55
68026;SHT31;54819;48.030;14.710;2023-02-11T17:47:18;4.10;60.67
68026;SHT31;54819;48.030;14.710;2023-02-11T17:49:46;4.06;60.87
68026;SHT31;54819;48.030;14.710;2023-02-11T17:52:21;4.04;60.94
68026;SHT31;54819;48.030;14.710;2023-02-11T17:54:50;4.03;60.96
68026;SHT31;54819;48.030;14.710;2023-02-11T17:57:17;4.01;61.02
68026;SHT31;54819;48.030;14.710;2023-02-11T17:59:44;3.99;61.12
68026;SHT31;54819;48.030;14.710;2023-02-11T18:02:14;4.00;61.26
68026;SHT31;54819;48.030;14.710;2023-02-11T18:04:42;4.01;61.27
68026;SHT31;54819;48.030;14.710;2023-02-11T18:07:09;4.01;61.33
68026;SHT31;54819;48.030;14.710;2023-02-11T18:09:40;4.02;61.44
68026;SHT31;54819;48.030;14.710;2023-02-11T18:12:08;4.02;61.60
68026;SHT31;54819;48.030;14.710;2023-02-11T18:14:39;4.05;61.71
68026;SHT31;54819;48.030;14.710;2023-02-11T18:17:12;4.05;61.83
68026;SHT31;54819;48.030;14.710;2023-02-11T18:19:40;4.04;62.05
68026;SHT31;54819;48.030;14.710;2023-02-11T18:22:10;4.05;62.05
68026;SHT31;54819;48.030;14.710;2023-02-11T18:24:40;4.05;61.98
68026;SHT31;54819;48.030;14.710;2023-02-11T18:27:11;4.07;62.05
68026;SHT31;54819;48.030;14.710;2023-02-11T18:29:42;4.07;62.09
68026;SHT31;54819;48.030;14.710;2023-02-11T18:32:09;4.07;62.13
68026;SHT31;54819;48.030;14.710;2023-02-11T18:34:45;4.08;62.14
68026;SHT31;54819;48.030;14.710;2023-02-11T18:37:22;4.07;61.93
68026;SHT31;54819;48.030;14.710;2023-02-11T18:39:51;4.09;61.94
68026;SHT31;54819;48.030;14.710;2023-02-11T18:42:33;4.10;61.89
68026;SHT31;54819;48.030;14.710;2023-02-11T18:45:14;4.11;61.85
68026;SHT31;54819;48.030;14.710;2023-02-11T18:47:52;4.12;61.92
68026;SHT31;54819;48.030;14.710;2023-02-11T18:50:19;4.12;61.99
68026;SHT31;54819;48.030;14.710;2023-02-11T18:52:48;4.13;61.91
68026;SHT31;54819;48.030;14.710;2023-02-11T18:55:18;4.13;61.98
68026;SHT31;54819;48.030;14.710;2023-02-11T18:57:49;4.12;61.91
68026;SHT31;54819;48.030;14.710;2023-02-11T19:00:21;4.14;61.93
68026;SHT31;54819;48.030;14.710;2023-02-11T19:02:49;4.13;61.95
68026;SHT31;54819;48.030;14.710;2023-02-11T19:05:18;4.14;62.06
68026;SHT31;54819;48.030;14.710;2023-02-11T19:07:47;4.11;62.21
68026;SHT31;54819;48.030;14.710;2023-02-11T19:10:14;4.08;62.56